createdAt,value
2019-05-28T00:01:16.710Z,12.94
2019-05-28T00:03:47.918Z,12.90
2019-05-28T00:06:19.296Z,12.77
2019-05-28T00:08:50.645Z,12.92
2019-05-28T00:11:21.976Z,12.76
2019-05-28T00:13:53.519Z,12.80
2019-05-28T00:16:25.042Z,12.71
2019-05-28T00:18:59.615Z,12.62
2019-05-28T00:21:29.642Z,12.69
2019-05-28T00:24:00.892Z,12.79
2019-05-28T00:26:32.807Z,12.61
2019-05-28T00:29:04.817Z,12.66
2019-05-28T00:31:36.265Z,12.60
2019-05-28T00:34:07.979Z,12.61
2019-05-28T00:36:39.471Z,12.42
2019-05-28T00:39:10.716Z,12.47
2019-05-28T00:41:42.295Z,12.41
2019-05-28T00:44:14.199Z,12.36
2019-05-28T00:46:45.454Z,12.42
2019-05-28T00:49:16.698Z,12.55
2019-05-28T00:51:48.031Z,12.45
2019-05-28T00:54:19.414Z,12.56
2019-05-28T00:56:53.023Z,12.51
2019-05-28T00:59:24.909Z,12.54
2019-05-28T01:01:56.407Z,12.37
2019-05-28T01:04:27.747Z,12.38
2019-05-28T01:07:02.137Z,12.54
2019-05-28T01:09:35.225Z,12.54
2019-05-28T01:12:07.000Z,12.54
2019-05-28T01:14:38.277Z,12.35
2019-05-28T01:17:09.739Z,12.36
2019-05-28T01:19:42.797Z,12.29
2019-05-28T01:22:14.176Z,12.32
2019-05-28T01:24:45.542Z,12.48
2019-05-28T01:27:18.325Z,12.38
2019-05-28T01:29:49.555Z,12.33
2019-05-28T01:32:21.455Z,12.35
2019-05-28T01:34:53.072Z,12.45
2019-05-28T01:37:24.295Z,12.06
2019-05-28T01:39:55.554Z,12.07
2019-05-28T01:42:30.767Z,12.17
2019-05-28T01:45:02.094Z,12.08
2019-05-28T01:47:35.191Z,11.99
2019-05-28T01:50:08.219Z,11.80
2019-05-28T01:52:39.788Z,11.80
2019-05-28T01:55:12.269Z,11.80
2019-05-28T01:57:43.598Z,11.87
2019-05-28T02:00:15.520Z,12.04
2019-05-28T02:02:46.831Z,11.87
2019-05-28T02:05:18.824Z,11.91
2019-05-28T02:07:50.071Z,12.04
2019-05-28T02:10:21.826Z,11.96
2019-05-28T02:12:53.496Z,11.99
2019-05-28T02:15:26.265Z,11.96
2019-05-28T02:17:57.507Z,12.15
2019-05-28T02:20:28.698Z,11.99
2019-05-28T02:22:59.996Z,11.84
2019-05-28T02:25:31.293Z,11.93
2019-05-28T02:28:02.540Z,11.79
2019-05-28T02:30:34.226Z,11.77
2019-05-28T02:33:07.018Z,11.43
2019-05-28T02:35:40.333Z,11.62
2019-05-28T02:38:12.681Z,11.76
2019-05-28T02:40:44.053Z,11.60
2019-05-28T02:43:15.819Z,11.59
2019-05-28T02:45:47.423Z,11.65
2019-05-28T02:48:21.502Z,11.51
2019-05-28T02:51:01.275Z,11.66
2019-05-28T02:53:33.394Z,11.74
2019-05-28T02:56:05.605Z,11.73
2019-05-28T02:58:40.537Z,11.81
2019-05-28T03:01:12.083Z,11.74
2019-05-28T03:03:45.724Z,11.91
2019-05-28T03:06:17.816Z,11.52
2019-05-28T03:08:51.252Z,11.71
2019-05-28T03:11:22.988Z,11.68
2019-05-28T03:13:54.196Z,11.79
2019-05-28T03:16:28.256Z,11.82
2019-05-28T03:19:12.850Z,12.05
2019-05-28T03:21:47.440Z,11.97
2019-05-28T03:24:20.891Z,11.94
2019-05-28T03:26:52.911Z,11.96
2019-05-28T03:29:24.145Z,12.02
2019-05-28T03:32:08.429Z,12.20
2019-05-28T03:34:31.308Z,12.09
2019-05-28T03:37:05.852Z,11.95
2019-05-28T03:39:39.440Z,12.11
2019-05-28T03:42:10.709Z,12.19
2019-05-28T03:44:42.020Z,12.13
2019-05-28T03:47:13.229Z,12.00
2019-05-28T03:49:44.501Z,12.15
2019-05-28T03:52:15.752Z,12.10
2019-05-28T03:54:47.363Z,12.07
2019-05-28T03:57:19.944Z,11.92
2019-05-28T03:59:51.126Z,12.15
2019-05-28T04:02:24.091Z,12.02
2019-05-28T04:04:57.049Z,11.93
2019-05-28T04:07:28.718Z,11.89
2019-05-28T04:10:00.403Z,11.90
2019-05-28T04:12:31.590Z,12.08
2019-05-28T04:15:03.311Z,11.90
2019-05-28T04:17:34.766Z,11.84
2019-05-28T04:20:06.882Z,11.91
2019-05-28T04:22:38.623Z,11.68
2019-05-28T04:25:10.074Z,11.78
2019-05-28T04:27:41.697Z,11.50
2019-05-28T04:30:13.485Z,11.60
2019-05-28T04:32:45.083Z,11.68
2019-05-28T04:35:17.379Z,11.77
2019-05-28T04:37:48.651Z,11.87
2019-05-28T04:40:19.892Z,11.88
2019-05-28T04:42:51.224Z,11.81
2019-05-28T04:45:23.002Z,11.87
2019-05-28T04:47:54.347Z,11.73
2019-05-28T04:50:25.591Z,11.79
2019-05-28T04:52:57.003Z,11.70
2019-05-28T04:55:28.250Z,11.72
2019-05-28T04:58:00.533Z,11.82
2019-05-28T05:00:32.301Z,11.83
2019-05-28T05:03:03.578Z,11.93
2019-05-28T05:05:34.893Z,11.67
2019-05-28T05:08:06.302Z,12.13
2019-05-28T05:10:39.735Z,12.19
2019-05-28T05:13:11.169Z,11.97
2019-05-28T05:15:46.858Z,12.14
2019-05-28T05:18:16.343Z,12.04
2019-05-28T05:20:47.692Z,12.13
2019-05-28T05:23:18.911Z,11.98
2019-05-28T05:25:50.418Z,12.15
2019-05-28T05:28:24.643Z,12.12
2019-05-28T05:30:56.397Z,12.25
2019-05-28T05:33:27.851Z,12.20
2019-05-28T05:35:59.124Z,12.13
2019-05-28T05:38:30.534Z,12.34
2019-05-28T05:41:02.458Z,12.17
2019-05-28T05:44:14.276Z,12.34
2019-05-28T05:46:47.771Z,12.41
2019-05-28T05:49:19.037Z,12.31
2019-05-28T05:51:50.746Z,12.25
2019-05-28T05:54:22.184Z,12.48
2019-05-28T05:56:53.857Z,12.52
2019-05-28T05:59:28.061Z,12.29
2019-05-28T06:02:00.233Z,12.58
2019-05-28T06:04:32.583Z,12.94
2019-05-28T06:07:03.857Z,12.80
2019-05-28T06:09:35.265Z,12.89
2019-05-28T06:12:06.796Z,13.16
2019-05-28T06:14:40.068Z,13.51
2019-05-28T06:17:11.909Z,13.72
2019-05-28T06:19:46.428Z,14.09
2019-05-28T06:22:17.886Z,14.52
2019-05-28T06:24:51.830Z,14.61
2019-05-28T06:27:23.200Z,14.86
2019-05-28T06:29:54.895Z,15.02
2019-05-28T06:32:26.173Z,14.81
2019-05-28T06:34:59.311Z,14.35
2019-05-28T06:37:32.275Z,14.09
2019-05-28T06:40:03.931Z,13.87
2019-05-28T06:42:39.394Z,13.97
2019-05-28T06:45:10.414Z,14.28
2019-05-28T06:47:44.921Z,14.45
2019-05-28T06:50:15.208Z,14.86
2019-05-28T06:52:46.724Z,14.96
2019-05-28T06:55:18.259Z,14.87
2019-05-28T06:57:49.590Z,14.81
2019-05-28T07:00:21.728Z,14.23
2019-05-28T07:02:53.797Z,14.34
2019-05-28T07:05:27.544Z,13.90
2019-05-28T07:07:58.901Z,14.04
2019-05-28T07:10:33.309Z,14.19
2019-05-28T07:13:04.898Z,14.39
2019-05-28T07:15:36.448Z,14.24
2019-05-28T07:18:08.046Z,13.97
2019-05-28T07:20:39.610Z,13.70
2019-05-28T07:23:11.053Z,13.98
2019-05-28T07:25:42.400Z,13.70
2019-05-28T07:28:14.746Z,13.41
2019-05-28T07:30:48.954Z,13.79
2019-05-28T07:33:20.145Z,14.20
2019-05-28T07:35:51.523Z,14.18
2019-05-28T07:38:23.020Z,14.08
2019-05-28T07:40:54.644Z,14.21
2019-05-28T07:43:26.962Z,14.63
2019-05-28T07:45:58.529Z,15.01
2019-05-28T07:48:30.651Z,15.30
2019-05-28T07:51:01.971Z,14.93
2019-05-28T07:53:40.123Z,14.97
2019-05-28T07:56:07.235Z,14.93
2019-05-28T07:58:41.895Z,14.95
2019-05-28T08:01:13.387Z,15.17
2019-05-28T08:03:44.786Z,15.05
2019-05-28T08:06:16.020Z,14.88
2019-05-28T08:08:54.630Z,14.88
2019-05-28T08:11:26.159Z,14.40
2019-05-28T08:13:57.423Z,14.30
2019-05-28T08:16:29.172Z,14.41
2019-05-28T08:19:00.369Z,14.44
2019-05-28T08:21:32.493Z,14.29
2019-05-28T08:24:03.715Z,14.44
2019-05-28T08:26:34.994Z,14.51
2019-05-28T08:29:06.838Z,14.38
2019-05-28T08:31:38.196Z,14.33
2019-05-28T08:34:10.063Z,14.15
2019-05-28T08:36:41.642Z,14.36
2019-05-28T08:39:13.015Z,14.49
2019-05-28T08:41:44.511Z,14.69
2019-05-28T08:44:16.529Z,14.79
2019-05-28T08:46:47.947Z,15.00
2019-05-28T08:49:19.373Z,15.38
2019-05-28T08:51:50.690Z,15.29
2019-05-28T08:54:22.509Z,15.42
2019-05-28T08:56:53.947Z,14.85
2019-05-28T08:59:26.614Z,15.11
2019-05-28T09:02:02.591Z,15.18
2019-05-28T09:04:41.579Z,15.23
2019-05-28T09:07:13.548Z,15.00
2019-05-28T09:09:44.851Z,14.51
2019-05-28T09:12:16.391Z,14.62
2019-05-28T09:14:55.947Z,14.84
2019-05-28T09:17:24.167Z,14.92
2019-05-28T09:19:56.920Z,14.99
2019-05-28T09:22:30.908Z,15.00
2019-05-28T09:25:10.350Z,14.88
2019-05-28T09:27:50.581Z,14.70
2019-05-28T09:30:26.432Z,14.80
2019-05-28T09:32:57.938Z,14.82
2019-05-28T09:35:44.063Z,14.73
2019-05-28T09:38:02.976Z,14.77
2019-05-28T09:40:49.349Z,14.94
2019-05-28T09:43:07.282Z,15.03
2019-05-28T09:45:40.036Z,15.09
2019-05-28T09:48:11.467Z,15.05
2019-05-28T09:50:42.765Z,15.19
2019-05-28T09:53:15.376Z,15.28
2019-05-28T09:55:46.641Z,15.27
2019-05-28T09:58:17.837Z,15.35
2019-05-28T10:00:58.247Z,15.27
2019-05-28T10:03:22.991Z,15.52
2019-05-28T10:06:13.175Z,15.64
2019-05-28T10:08:28.202Z,15.39
2019-05-28T10:10:59.383Z,15.06
2019-05-28T10:13:39.150Z,15.10
2019-05-28T10:16:04.081Z,14.97
2019-05-28T10:18:35.642Z,14.99
2019-05-28T10:21:18.470Z,15.03
2019-05-28T10:23:41.329Z,15.03
2019-05-28T10:26:12.648Z,15.03
2019-05-28T10:28:44.442Z,14.99
2019-05-28T10:31:15.670Z,14.86
2019-05-28T10:33:47.091Z,14.88
2019-05-28T10:36:34.277Z,14.84
2019-05-28T10:38:51.630Z,15.05
2019-05-28T10:41:22.994Z,15.13
2019-05-28T10:43:54.262Z,15.11
2019-05-28T10:46:25.588Z,15.15
2019-05-28T10:48:58.795Z,14.71
2019-05-28T10:51:30.118Z,14.85
2019-05-28T10:54:01.835Z,14.95
2019-05-28T10:56:33.312Z,14.87
2019-05-28T10:59:04.722Z,14.89
2019-05-28T11:01:37.007Z,14.66
2019-05-28T11:04:08.402Z,14.68
2019-05-28T11:06:51.459Z,14.68
2019-05-28T11:09:12.858Z,14.77
2019-05-28T11:11:44.617Z,14.98
2019-05-28T11:14:15.837Z,15.09
2019-05-28T11:16:48.981Z,15.38
2019-05-28T11:19:20.361Z,15.71
2019-05-28T11:21:51.818Z,15.54
2019-05-28T11:24:23.121Z,15.49
2019-05-28T11:26:55.572Z,15.54
2019-05-28T11:29:26.850Z,15.64
2019-05-28T11:31:58.442Z,15.51
2019-05-28T11:34:29.793Z,15.64
2019-05-28T11:37:09.403Z,16.19
2019-05-28T11:39:34.227Z,16.34
2019-05-28T11:42:05.641Z,16.39
2019-05-28T11:44:37.062Z,16.28
2019-05-28T11:47:08.409Z,15.94
2019-05-28T11:49:39.616Z,15.76
2019-05-28T11:52:10.971Z,15.86
2019-05-28T11:54:42.266Z,15.85
2019-05-28T11:57:13.462Z,16.12
2019-05-28T11:59:45.875Z,15.77
2019-05-28T12:02:17.274Z,15.73
2019-05-28T12:04:48.638Z,15.61
2019-05-28T12:07:26.198Z,15.40
2019-05-28T12:09:53.334Z,15.31
2019-05-28T12:12:24.704Z,15.46
2019-05-28T12:14:56.004Z,15.67
2019-05-28T12:17:41.402Z,15.72
2019-05-28T12:20:00.582Z,15.93
2019-05-28T12:22:31.960Z,16.06
2019-05-28T12:25:04.337Z,15.89
2019-05-28T12:27:35.723Z,16.25
2019-05-28T12:30:08.816Z,16.19
2019-05-28T12:32:40.243Z,16.27
2019-05-28T12:35:27.235Z,16.24
2019-05-28T12:37:49.247Z,16.02
2019-05-28T12:40:19.139Z,15.64
2019-05-28T12:42:50.592Z,15.48
2019-05-28T12:45:34.168Z,15.51
2019-05-28T12:48:09.665Z,15.44
2019-05-28T12:50:28.837Z,15.60
2019-05-28T12:53:02.730Z,15.58
2019-05-28T12:55:33.980Z,15.64
2019-05-28T12:58:06.197Z,15.68
2019-05-28T13:00:37.932Z,15.90
2019-05-28T13:03:09.349Z,15.88
2019-05-28T13:05:40.630Z,15.96
2019-05-28T13:08:13.275Z,15.80
2019-05-28T13:10:45.104Z,15.82
2019-05-28T13:13:16.772Z,15.80
2019-05-28T13:15:48.011Z,16.00
2019-05-28T13:18:19.220Z,16.40
2019-05-28T13:20:50.457Z,16.43
2019-05-28T13:23:21.705Z,16.20
2019-05-28T13:25:54.097Z,16.04
2019-05-28T13:28:25.544Z,16.00
2019-05-28T13:30:56.949Z,15.95
2019-05-28T13:33:28.297Z,15.73
2019-05-28T13:36:00.141Z,15.90
2019-05-28T13:38:31.417Z,15.97
2019-05-28T13:41:02.648Z,16.41
2019-05-28T13:43:33.923Z,16.72
2019-05-28T13:46:05.255Z,16.74
2019-05-28T13:48:36.586Z,16.79
2019-05-28T13:51:07.900Z,16.45
2019-05-28T13:53:39.723Z,16.31
2019-05-28T13:56:11.432Z,16.27
2019-05-28T13:58:42.979Z,16.43
2019-05-28T14:01:14.281Z,16.16
2019-05-28T14:03:46.037Z,16.23
2019-05-28T14:06:17.280Z,16.24
2019-05-28T14:08:48.474Z,16.16
2019-05-28T14:11:19.690Z,16.07
2019-05-28T14:13:51.019Z,16.13
2019-05-28T14:16:22.451Z,16.20
2019-05-28T14:18:53.739Z,16.38
2019-05-28T14:21:25.023Z,16.18
2019-05-28T14:23:56.681Z,16.09
2019-05-28T14:26:28.348Z,16.16
2019-05-28T14:29:02.584Z,16.45
2019-05-28T14:31:33.834Z,16.23
2019-05-28T14:34:05.182Z,16.30
2019-05-28T14:36:36.417Z,16.36
2019-05-28T14:39:09.465Z,16.52
2019-05-28T14:41:40.800Z,16.54
2019-05-28T14:44:12.122Z,16.58
2019-05-28T14:46:45.906Z,16.43
2019-05-28T14:49:17.407Z,16.75
2019-05-28T14:51:48.666Z,16.78
2019-05-28T14:54:20.163Z,16.51
2019-05-28T14:56:51.411Z,16.58
2019-05-28T14:59:22.617Z,16.44
2019-05-28T15:01:53.860Z,16.29
2019-05-28T15:04:25.319Z,16.44
2019-05-28T15:06:57.404Z,16.72
2019-05-28T15:09:29.520Z,16.93
2019-05-28T15:12:03.677Z,16.59
2019-05-28T15:14:33.613Z,16.59
2019-05-28T15:17:05.154Z,16.42
2019-05-28T15:19:36.415Z,16.48
2019-05-28T15:22:07.718Z,16.57
2019-05-28T15:24:39.304Z,17.04
2019-05-28T15:27:10.658Z,16.99
2019-05-28T15:29:43.138Z,16.91
2019-05-28T15:32:14.449Z,17.08
2019-05-28T15:34:45.778Z,16.70
2019-05-28T15:37:17.919Z,16.67
2019-05-28T15:39:49.514Z,16.40
2019-05-28T15:42:22.122Z,16.78
2019-05-28T15:44:54.130Z,16.82
2019-05-28T15:47:26.637Z,16.55
2019-05-28T15:49:57.936Z,16.55
2019-05-28T15:52:29.287Z,16.54
2019-05-28T15:55:00.817Z,16.55
2019-05-28T15:57:32.489Z,16.56
2019-05-28T16:00:04.701Z,16.41
2019-05-28T16:02:36.428Z,16.79
2019-05-28T16:05:08.691Z,16.68
2019-05-28T16:07:40.506Z,16.60
2019-05-28T16:10:11.699Z,16.43
2019-05-28T16:12:43.010Z,16.90
2019-05-28T16:15:14.791Z,16.94
2019-05-28T16:17:48.991Z,16.78
2019-05-28T16:20:20.459Z,16.40
2019-05-28T16:22:51.902Z,16.33
2019-05-28T16:25:23.682Z,16.19
2019-05-28T16:27:55.368Z,15.90
2019-05-28T16:30:28.972Z,16.03
2019-05-28T16:33:01.399Z,16.14
2019-05-28T16:35:33.878Z,16.06
2019-05-28T16:38:06.177Z,16.02
2019-05-28T16:40:37.487Z,15.72
2019-05-28T16:43:09.357Z,15.63
2019-05-28T16:45:40.774Z,15.65
2019-05-28T16:48:12.418Z,15.84
2019-05-28T16:50:43.929Z,15.80
2019-05-28T16:53:15.623Z,15.63
2019-05-28T16:55:47.220Z,15.87
2019-05-28T16:58:18.558Z,15.82
2019-05-28T17:00:49.870Z,15.64
2019-05-28T17:03:21.286Z,15.44
2019-05-28T17:05:52.538Z,15.32
2019-05-28T17:08:23.880Z,15.56
2019-05-28T17:10:55.291Z,15.75
2019-05-28T17:13:28.579Z,15.61
2019-05-28T17:16:00.283Z,15.08
2019-05-28T17:18:32.042Z,15.20
2019-05-28T17:21:03.723Z,15.01
2019-05-28T17:23:35.187Z,15.03
2019-05-28T17:26:07.867Z,14.83
2019-05-28T17:28:40.293Z,15.15
2019-05-28T17:31:11.753Z,14.91
2019-05-28T17:33:43.189Z,14.80
2019-05-28T17:36:14.486Z,14.63
2019-05-28T17:38:46.484Z,14.72
2019-05-28T17:41:19.988Z,14.67
2019-05-28T17:43:51.163Z,14.51
2019-05-28T17:46:22.840Z,14.54
2019-05-28T17:48:54.755Z,14.23
2019-05-28T17:51:26.028Z,14.21
2019-05-28T17:53:57.300Z,14.44
2019-05-28T17:56:28.627Z,14.30
2019-05-28T17:59:00.256Z,14.61
2019-05-28T18:01:31.497Z,14.54
2019-05-28T18:04:02.743Z,14.34
2019-05-28T18:06:33.975Z,14.27
2019-05-28T18:09:07.221Z,14.04
2019-05-28T18:11:38.672Z,14.01
2019-05-28T18:14:10.200Z,14.04
2019-05-28T18:16:41.415Z,14.05
2019-05-28T18:19:12.685Z,13.88
2019-05-28T18:21:43.977Z,13.79
2019-05-28T18:24:15.304Z,13.75
2019-05-28T18:26:46.709Z,13.78
2019-05-28T18:29:17.994Z,13.57
2019-05-28T18:31:50.204Z,13.48
2019-05-28T18:34:21.956Z,13.57
2019-05-28T18:36:53.857Z,13.44
2019-05-28T18:39:25.686Z,13.59
2019-05-28T18:41:57.206Z,13.66
2019-05-28T18:44:28.340Z,13.78
2019-05-28T18:46:59.950Z,13.67
2019-05-28T18:49:31.179Z,13.69
2019-05-28T18:52:02.549Z,13.55
2019-05-28T18:54:34.692Z,13.18
2019-05-28T18:57:06.518Z,13.32
2019-05-28T18:59:38.094Z,13.22
2019-05-28T19:02:10.910Z,13.37
2019-05-28T19:04:42.583Z,13.34
2019-05-28T19:07:14.090Z,13.28
2019-05-28T19:09:49.068Z,13.33
2019-05-28T19:12:20.336Z,13.18
2019-05-28T19:14:52.189Z,13.00
2019-05-28T19:17:23.739Z,13.14
2019-05-28T19:19:55.191Z,13.11
2019-05-28T19:22:26.605Z,13.18
2019-05-28T19:24:58.036Z,13.09
2019-05-28T19:27:29.449Z,12.98
2019-05-28T19:30:00.933Z,12.96
2019-05-28T19:32:32.523Z,12.95
2019-05-28T19:35:07.638Z,12.93
2019-05-28T19:37:39.481Z,13.01
2019-05-28T19:40:12.091Z,12.82
2019-05-28T19:42:45.900Z,12.74
2019-05-28T19:45:20.402Z,12.66
2019-05-28T19:47:51.660Z,12.47
2019-05-28T19:50:22.955Z,12.42
2019-05-28T19:52:56.965Z,12.51
2019-05-28T19:55:27.912Z,12.50
2019-05-28T19:57:59.254Z,12.54
2019-05-28T20:00:30.505Z,12.37
2019-05-28T20:03:02.177Z,12.33
2019-05-28T20:05:33.419Z,12.19
2019-05-28T20:08:04.829Z,12.07
2019-05-28T20:10:36.102Z,12.12
2019-05-28T20:13:07.432Z,12.02
2019-05-28T20:15:38.633Z,12.02
2019-05-28T20:18:25.822Z,11.94
2019-05-28T20:20:42.992Z,11.81
2019-05-28T20:23:14.188Z,11.93
2019-05-28T20:25:48.793Z,11.93
2019-05-28T20:28:19.340Z,11.95
2019-05-28T20:30:50.920Z,12.06
2019-05-28T20:33:22.170Z,11.95
2019-05-28T20:35:53.486Z,11.71
2019-05-28T20:38:24.763Z,11.84
2019-05-28T20:40:56.047Z,11.78
2019-05-28T20:43:27.378Z,11.84
2019-05-28T20:46:00.272Z,11.70
2019-05-28T20:48:32.373Z,11.67
2019-05-28T20:51:08.878Z,11.64
2019-05-28T20:53:39.039Z,11.49
2019-05-28T20:56:11.948Z,11.49
2019-05-28T20:58:43.433Z,11.50
2019-05-28T21:01:15.065Z,11.46
2019-05-28T21:03:47.713Z,11.51
2019-05-28T21:06:19.286Z,11.55
2019-05-28T21:08:52.063Z,11.36
2019-05-28T21:11:23.738Z,11.45
2019-05-28T21:13:56.696Z,11.52
2019-05-28T21:16:28.270Z,11.51
2019-05-28T21:18:59.918Z,11.29
2019-05-28T21:21:31.185Z,11.33
2019-05-28T21:24:02.471Z,11.39
2019-05-28T21:26:34.207Z,11.23
2019-05-28T21:29:05.410Z,11.35
2019-05-28T21:31:36.736Z,11.05
2019-05-28T21:34:08.013Z,11.22
2019-05-28T21:36:39.373Z,11.14
2019-05-28T21:39:11.697Z,11.17
2019-05-28T21:41:43.041Z,10.99
2019-05-28T21:44:14.463Z,10.88
2019-05-28T21:46:45.899Z,10.98
2019-05-28T21:49:17.291Z,10.98
2019-05-28T21:51:48.794Z,10.89
2019-05-28T21:54:20.608Z,10.74
2019-05-28T21:56:53.132Z,10.74
2019-05-28T21:59:24.732Z,10.78
2019-05-28T22:01:56.223Z,10.85
2019-05-28T22:04:27.915Z,10.79
2019-05-28T22:06:59.672Z,10.77
2019-05-28T22:09:33.255Z,10.90
2019-05-28T22:12:05.360Z,10.66
2019-05-28T22:14:36.950Z,10.92
2019-05-28T22:17:12.770Z,10.96
2019-05-28T22:19:41.743Z,10.96
2019-05-28T22:22:13.176Z,10.97
2019-05-28T22:24:44.392Z,11.03
2019-05-28T22:27:15.765Z,10.67
2019-05-28T22:29:48.034Z,10.64
2019-05-28T22:32:19.539Z,10.67
2019-05-28T22:34:50.921Z,10.53
2019-05-28T22:37:23.075Z,10.48
2019-05-28T22:39:54.453Z,10.47
2019-05-28T22:42:25.721Z,10.29
2019-05-28T22:44:57.152Z,10.38
2019-05-28T22:47:57.282Z,10.38
2019-05-28T22:50:28.640Z,10.42
2019-05-28T22:53:00.404Z,10.28
2019-05-28T22:55:32.045Z,10.11
2019-05-28T22:58:04.945Z,10.01
2019-05-28T23:00:36.391Z,9.95
2019-05-28T23:03:09.335Z,9.97
2019-05-28T23:05:41.137Z,10.05
2019-05-28T23:08:16.194Z,10.27
2019-05-28T23:10:48.787Z,10.34
2019-05-28T23:13:20.567Z,10.37
2019-05-28T23:15:52.039Z,10.27
2019-05-28T23:18:25.615Z,10.14
2019-05-28T23:20:57.173Z,10.16
2019-05-28T23:23:28.674Z,10.27
2019-05-28T23:26:01.213Z,10.22
2019-05-28T23:28:32.698Z,10.12
2019-05-28T23:31:05.979Z,10.21
2019-05-28T23:33:39.936Z,10.07
2019-05-28T23:36:12.791Z,10.12
2019-05-28T23:38:44.059Z,10.05
2019-05-28T23:41:16.004Z,10.01
2019-05-28T23:44:01.128Z,10.18
2019-05-28T23:46:20.177Z,10.23
2019-05-28T23:48:51.360Z,10.08
2019-05-28T23:51:22.605Z,10.07
2019-05-28T23:53:53.781Z,9.94
2019-05-28T23:56:25.000Z,9.85
2019-05-28T23:58:56.548Z,9.73
